createdAt,value
2023-02-08T00:01:22.355Z,1.70
2023-02-08T00:03:52.523Z,1.70
2023-02-08T00:06:20.055Z,1.60
2023-02-08T00:08:49.918Z,1.60
2023-02-08T00:11:19.690Z,1.50
2023-02-08T00:13:47.495Z,1.20
2023-02-08T00:16:15.941Z,1.00
2023-02-08T00:18:45.550Z,0.60
2023-02-08T00:21:15.453Z,0.60
2023-02-08T00:23:46.361Z,0.50
2023-02-08T00:26:14.918Z,0.40
2023-02-08T00:28:42.344Z,0.50
2023-02-08T00:31:09.719Z,0.60
2023-02-08T00:33:37.182Z,0.70
2023-02-08T00:36:07.971Z,0.70
2023-02-08T00:38:36.135Z,0.90
2023-02-08T00:41:03.878Z,1.00
2023-02-08T00:43:31.193Z,1.00
2023-02-08T00:45:59.846Z,1.00
2023-02-08T00:48:27.998Z,1.00
2023-02-08T00:51:02.702Z,0.90
2023-02-08T00:53:30.511Z,1.00
2023-02-08T00:56:00.214Z,1.00
2023-02-08T00:58:27.504Z,1.00
2023-02-08T01:00:57.049Z,1.00
2023-02-08T01:03:27.568Z,0.90
2023-02-08T01:05:54.899Z,0.90
2023-02-08T01:08:22.274Z,1.00
2023-02-08T01:10:51.994Z,1.00
2023-02-08T01:13:21.482Z,1.00
2023-02-08T01:15:48.709Z,0.90
2023-02-08T01:18:15.960Z,0.80
2023-02-08T01:20:43.241Z,0.80
2023-02-08T01:23:10.623Z,0.90
2023-02-08T01:25:39.977Z,0.90
2023-02-08T01:28:07.284Z,0.80
2023-02-08T01:30:37.041Z,0.70
2023-02-08T01:33:06.733Z,0.70
2023-02-08T01:35:36.450Z,0.70
2023-02-08T01:38:05.976Z,0.70
2023-02-08T01:40:38.399Z,0.70
2023-02-08T01:43:20.980Z,0.80
2023-02-08T01:45:50.903Z,0.80
2023-02-08T01:48:34.258Z,0.80
2023-02-08T01:51:04.297Z,0.70
2023-02-08T01:53:36.509Z,0.80
2023-02-08T01:56:08.313Z,0.80
2023-02-08T01:58:41.931Z,0.80
2023-02-08T02:01:13.089Z,0.70
2023-02-08T02:03:43.485Z,0.70
2023-02-08T02:06:15.446Z,0.70
2023-02-08T02:09:00.245Z,0.70
2023-02-08T02:11:29.068Z,0.80
2023-02-08T02:13:57.623Z,0.90
2023-02-08T02:16:24.888Z,0.90
2023-02-08T02:18:52.360Z,0.80
2023-02-08T02:21:44.630Z,0.70
2023-02-08T02:24:30.140Z,0.70
2023-02-08T02:27:32.543Z,0.60
2023-02-08T02:30:34.581Z,0.50
2023-02-08T02:33:28.661Z,0.30
2023-02-08T02:36:26.457Z,0.40
2023-02-08T02:39:14.470Z,0.50
2023-02-08T02:42:29.126Z,0.50
2023-02-08T02:45:01.936Z,0.60
2023-02-08T02:47:49.732Z,0.50
2023-02-08T02:50:43.494Z,0.50
2023-02-08T02:53:28.095Z,0.50
2023-02-08T02:56:01.509Z,0.40
2023-02-08T02:58:30.993Z,0.30
2023-02-08T03:01:02.018Z,0.20
2023-02-08T03:03:33.803Z,0.20
2023-02-08T03:06:04.928Z,-0.20
2023-02-08T03:09:00.912Z,-0.50
2023-02-08T03:11:34.196Z,-0.50
2023-02-08T03:14:13.475Z,-0.30
2023-02-08T03:17:04.631Z,-0.20
2023-02-08T03:19:48.992Z,-0.20
2023-02-08T03:22:42.475Z,-0.20
2023-02-08T03:25:17.830Z,-0.20
2023-02-08T03:28:01.689Z,-0.20
2023-02-08T03:30:39.074Z,-0.30
2023-02-08T03:33:17.317Z,-0.20
2023-02-08T03:35:57.384Z,-0.20
2023-02-08T03:38:37.928Z,-0.30
2023-02-08T03:41:07.874Z,-0.20
2023-02-08T03:44:16.216Z,-0.20
2023-02-08T03:46:54.117Z,-0.20
2023-02-08T03:49:30.410Z,-0.10
2023-02-08T03:52:01.898Z,-0.10
2023-02-08T03:54:35.184Z,-0.10
2023-02-08T03:57:25.475Z,0.00
2023-02-08T04:00:02.338Z,0.00
2023-02-08T04:02:33.938Z,0.00
2023-02-08T04:05:01.956Z,0.00
2023-02-08T04:07:31.640Z,0.00
2023-02-08T04:09:58.981Z,0.00
2023-02-08T04:12:26.278Z,0.00
2023-02-08T04:14:55.872Z,0.00
2023-02-08T04:17:23.395Z,0.00
2023-02-08T04:19:52.755Z,0.10
2023-02-08T04:22:22.566Z,0.10
2023-02-08T04:24:52.268Z,0.10
2023-02-08T04:27:19.702Z,0.00
2023-02-08T04:29:49.339Z,0.00
2023-02-08T04:32:16.651Z,-0.10
2023-02-08T04:34:43.896Z,-0.10
2023-02-08T04:37:11.998Z,-0.10
2023-02-08T04:39:41.532Z,0.00
2023-02-08T04:42:09.348Z,-0.20
2023-02-08T04:44:39.008Z,-0.20
2023-02-08T04:47:06.309Z,-0.10
2023-02-08T04:49:33.576Z,0.00
2023-02-08T04:52:00.904Z,0.00
2023-02-08T04:54:28.204Z,0.00
2023-02-08T04:56:57.976Z,-0.10
2023-02-08T04:59:25.266Z,-0.10
2023-02-08T05:01:52.590Z,-0.10
2023-02-08T05:04:19.811Z,-0.10
2023-02-08T05:06:51.992Z,-0.40
2023-02-08T05:09:19.290Z,-0.60
2023-02-08T05:11:46.541Z,-0.50
2023-02-08T05:14:13.831Z,-0.40
2023-02-08T05:16:43.200Z,-0.40
2023-02-08T05:19:12.012Z,-0.50
2023-02-08T05:21:41.908Z,-0.60
2023-02-08T05:24:12.928Z,-0.60
2023-02-08T05:26:41.157Z,-0.50
2023-02-08T05:29:08.607Z,-0.50
2023-02-08T05:31:35.982Z,-0.50
2023-02-08T05:34:05.767Z,-0.40
2023-02-08T05:36:33.211Z,-0.40
2023-02-08T05:39:03.041Z,-0.50
2023-02-08T05:41:32.453Z,-0.60
2023-02-08T05:44:02.243Z,-0.50
2023-02-08T05:46:29.611Z,-0.50
2023-02-08T05:48:59.274Z,-0.40
2023-02-08T05:51:28.753Z,-0.40
2023-02-08T05:53:56.007Z,-0.40
2023-02-08T05:56:23.242Z,-0.60
2023-02-08T05:58:50.542Z,-0.60
2023-02-08T06:01:18.341Z,-0.70
2023-02-08T06:03:48.595Z,-0.60
2023-02-08T06:06:15.859Z,-0.50
2023-02-08T06:08:43.106Z,-0.50
2023-02-08T06:11:10.497Z,-0.50
2023-02-08T06:13:40.188Z,-0.50
2023-02-08T06:16:09.940Z,-0.50
2023-02-08T06:18:39.747Z,-0.50
2023-02-08T06:21:06.976Z,-0.60
2023-02-08T06:23:34.286Z,-0.50
2023-02-08T06:26:01.870Z,-0.50
2023-02-08T06:28:29.156Z,-0.40
2023-02-08T06:30:56.466Z,-0.40
2023-02-08T06:33:23.664Z,-0.30
2023-02-08T06:35:56.098Z,-0.40
2023-02-08T06:38:23.312Z,-0.40
2023-02-08T06:40:53.263Z,-0.50
2023-02-08T06:43:20.671Z,-0.50
2023-02-08T06:45:50.536Z,-0.60
2023-02-08T06:48:17.817Z,-0.60
2023-02-08T06:50:45.082Z,-0.50
2023-02-08T06:53:12.334Z,-0.50
2023-02-08T06:55:39.610Z,-0.50
2023-02-08T06:58:09.825Z,-0.50
2023-02-08T07:00:39.738Z,-0.50
2023-02-08T07:03:07.161Z,-0.70
2023-02-08T07:05:37.925Z,-0.90
2023-02-08T07:08:08.953Z,-0.90
2023-02-08T07:10:39.332Z,-1.20
2023-02-08T07:13:11.527Z,-1.10
2023-02-08T07:15:41.253Z,-1.00
2023-02-08T07:18:08.502Z,-0.90
2023-02-08T07:20:38.444Z,-0.80
2023-02-08T07:23:05.844Z,-0.70
2023-02-08T07:25:35.627Z,-0.50
2023-02-08T07:28:03.012Z,-0.60
2023-02-08T07:30:32.656Z,-0.50
2023-02-08T07:32:59.905Z,-0.50
2023-02-08T07:35:27.311Z,-0.40
2023-02-08T07:37:54.723Z,-0.10
2023-02-08T07:40:21.993Z,0.10
2023-02-08T07:42:51.456Z,0.30
2023-02-08T07:45:18.793Z,0.30
2023-02-08T07:47:46.694Z,0.40
2023-02-08T07:50:16.300Z,0.50
2023-02-08T07:52:46.036Z,0.90
2023-02-08T07:55:17.194Z,1.00
2023-02-08T07:57:49.044Z,1.00
2023-02-08T08:00:18.119Z,1.10
2023-02-08T08:02:45.356Z,1.20
2023-02-08T08:05:12.652Z,1.50
2023-02-08T08:07:39.937Z,1.80
2023-02-08T08:10:07.481Z,1.90
2023-02-08T08:12:35.103Z,1.90
2023-02-08T08:15:02.417Z,1.90
2023-02-08T08:17:31.783Z,1.80
2023-02-08T08:20:03.481Z,1.90
2023-02-08T08:22:30.823Z,2.20
2023-02-08T08:24:58.741Z,2.30
2023-02-08T08:27:28.404Z,2.40
2023-02-08T08:29:59.832Z,2.30
2023-02-08T08:32:27.314Z,2.20
2023-02-08T08:34:54.562Z,2.20
2023-02-08T08:37:21.778Z,2.20
2023-02-08T08:39:49.060Z,2.10
2023-02-08T08:42:18.567Z,2.00
2023-02-08T08:44:48.169Z,2.10
2023-02-08T08:47:15.704Z,2.10
2023-02-08T08:49:45.400Z,2.30
2023-02-08T08:52:13.532Z,2.40
2023-02-08T08:54:40.781Z,2.70
2023-02-08T08:57:08.197Z,4.50
2023-02-08T08:59:39.959Z,7.00
2023-02-08T09:02:07.297Z,9.20
2023-02-08T09:04:34.723Z,11.20
2023-02-08T09:07:01.974Z,13.10
2023-02-08T09:09:29.225Z,14.30
2023-02-08T09:11:56.496Z,15.30
2023-02-08T09:14:23.782Z,16.30
2023-02-08T09:16:55.982Z,17.10
2023-02-08T09:19:23.340Z,18.20
2023-02-08T09:21:50.844Z,18.00
2023-02-08T09:24:18.283Z,18.60
2023-02-08T09:26:46.391Z,18.70
2023-02-08T09:29:13.632Z,19.70
2023-02-08T09:31:43.469Z,19.80
2023-02-08T09:34:10.811Z,20.60
2023-02-08T09:36:40.479Z,21.20
2023-02-08T09:39:17.266Z,20.90
2023-02-08T09:42:26.608Z,21.00
2023-02-08T09:45:07.876Z,21.30
2023-02-08T09:47:42.493Z,20.90
2023-02-08T09:50:35.829Z,21.10
2023-02-08T09:53:11.695Z,21.00
2023-02-08T09:55:58.069Z,21.60
2023-02-08T09:58:33.583Z,21.80
2023-02-08T10:01:07.508Z,22.50
2023-02-08T10:03:41.868Z,23.00
2023-02-08T10:06:14.538Z,23.00
2023-02-08T10:08:45.766Z,22.30
2023-02-08T10:11:34.940Z,22.60
2023-02-08T10:14:08.057Z,22.20
2023-02-08T10:17:01.323Z,23.20
2023-02-08T10:20:01.216Z,24.00
2023-02-08T10:22:57.044Z,23.10
2023-02-08T10:25:51.298Z,23.20
2023-02-08T10:28:39.397Z,23.10
2023-02-08T10:31:28.878Z,23.90
2023-02-08T10:34:18.499Z,23.70
2023-02-08T10:36:46.439Z,22.40
2023-02-08T10:39:28.900Z,22.90
2023-02-08T10:41:58.581Z,23.10
2023-02-08T10:44:41.364Z,22.20
2023-02-08T10:47:28.970Z,22.40
2023-02-08T10:50:36.329Z,22.70
2023-02-08T10:53:05.179Z,23.30
2023-02-08T10:55:36.386Z,22.10
2023-02-08T10:58:05.612Z,21.80
2023-02-08T11:00:37.359Z,22.20
2023-02-08T11:03:16.074Z,22.50
2023-02-08T11:05:45.729Z,22.70
2023-02-08T11:08:23.213Z,22.30
2023-02-08T11:11:10.154Z,22.90
2023-02-08T11:13:43.427Z,22.30
2023-02-08T11:16:29.576Z,21.90
2023-02-08T11:18:59.418Z,22.50
2023-02-08T11:21:29.867Z,22.80
2023-02-08T11:23:58.397Z,23.80
2023-02-08T11:26:35.938Z,23.10
2023-02-08T11:29:15.544Z,22.70
2023-02-08T11:32:02.329Z,23.20
2023-02-08T11:34:43.393Z,23.40
2023-02-08T11:37:26.072Z,23.00
2023-02-08T11:40:01.928Z,23.00
2023-02-08T11:42:35.375Z,23.70
2023-02-08T11:45:04.899Z,23.90
2023-02-08T11:47:35.213Z,24.00
2023-02-08T11:50:05.658Z,23.00
2023-02-08T11:52:39.434Z,23.10
2023-02-08T11:55:18.470Z,23.00
2023-02-08T11:58:04.608Z,24.70
2023-02-08T12:00:41.892Z,26.40
2023-02-08T12:03:33.690Z,25.80
2023-02-08T12:06:24.910Z,24.80
2023-02-08T12:08:58.016Z,25.80
2023-02-08T12:11:56.912Z,27.10
2023-02-08T12:14:35.995Z,27.80
2023-02-08T12:17:18.160Z,28.30
2023-02-08T12:20:30.131Z,28.50
2023-02-08T12:23:18.752Z,28.30
2023-02-08T12:25:53.338Z,28.50
2023-02-08T12:28:33.261Z,28.70
2023-02-08T12:31:32.975Z,28.40
2023-02-08T12:34:21.787Z,27.70
2023-02-08T12:37:14.891Z,28.10
2023-02-08T12:40:31.231Z,27.10
2023-02-08T12:43:30.987Z,26.20
2023-02-08T12:46:22.224Z,26.60
2023-02-08T12:48:52.321Z,25.50
2023-02-08T12:51:44.700Z,24.80
2023-02-08T12:54:35.943Z,24.50
2023-02-08T12:57:05.627Z,25.10
2023-02-08T12:59:35.616Z,25.70
2023-02-08T13:02:18.361Z,24.90
2023-02-08T13:04:52.165Z,24.90
2023-02-08T13:07:35.362Z,24.70
2023-02-08T13:10:16.109Z,23.70
2023-02-08T13:12:49.598Z,23.00
2023-02-08T13:15:42.224Z,23.60
2023-02-08T13:18:18.730Z,23.00
2023-02-08T13:20:53.691Z,23.60
2023-02-08T13:23:38.490Z,23.90
2023-02-08T13:26:24.554Z,24.90
2023-02-08T13:29:01.263Z,24.90
2023-02-08T13:31:39.002Z,23.90
2023-02-08T13:34:25.147Z,22.80
2023-02-08T13:36:57.404Z,22.10
2023-02-08T13:39:33.523Z,22.40
2023-02-08T13:42:03.287Z,23.40
2023-02-08T13:44:39.200Z,22.80
2023-02-08T13:47:07.869Z,23.30
2023-02-08T13:49:50.081Z,23.10
2023-02-08T13:52:48.683Z,24.10
2023-02-08T13:55:41.522Z,22.90
2023-02-08T13:58:16.920Z,21.80
2023-02-08T14:01:15.083Z,22.00
2023-02-08T14:03:42.745Z,22.30
2023-02-08T14:06:28.146Z,22.70
2023-02-08T14:09:27.647Z,23.50
2023-02-08T14:12:01.094Z,23.80
2023-02-08T14:14:32.398Z,22.60
2023-02-08T14:17:10.051Z,22.50
2023-02-08T14:19:42.868Z,22.80
2023-02-08T14:22:13.114Z,22.40
2023-02-08T14:24:44.350Z,20.70
2023-02-08T14:27:25.418Z,19.80
2023-02-08T14:30:11.386Z,20.00
2023-02-08T14:32:42.090Z,20.30
2023-02-08T14:35:21.893Z,20.60
2023-02-08T14:37:58.346Z,20.90
2023-02-08T14:40:35.056Z,20.90
2023-02-08T14:43:23.038Z,20.70
2023-02-08T14:45:55.185Z,19.70
2023-02-08T14:48:48.538Z,19.60
2023-02-08T14:51:28.908Z,19.90
2023-02-08T14:54:03.456Z,18.90
2023-02-08T14:56:37.606Z,18.80
2023-02-08T14:59:17.554Z,19.30
2023-02-08T15:02:12.747Z,19.60
2023-02-08T15:04:44.688Z,19.60
2023-02-08T15:07:33.082Z,19.60
2023-02-08T15:10:04.317Z,18.80
2023-02-08T15:12:39.924Z,19.10
2023-02-08T15:15:20.447Z,18.80
2023-02-08T15:17:50.629Z,18.80
2023-02-08T15:20:22.020Z,18.70
2023-02-08T15:22:49.319Z,18.40
2023-02-08T15:25:24.745Z,17.90
2023-02-08T15:28:01.185Z,17.60
2023-02-08T15:30:37.367Z,17.60
2023-02-08T15:33:14.464Z,17.50
2023-02-08T15:35:43.687Z,17.40
2023-02-08T15:38:23.043Z,17.30
2023-02-08T15:41:08.895Z,17.10
2023-02-08T15:43:40.436Z,17.30
2023-02-08T15:46:25.688Z,17.60
2023-02-08T15:48:54.784Z,17.30
2023-02-08T15:51:24.353Z,17.60
2023-02-08T15:53:56.982Z,17.90
2023-02-08T15:56:41.319Z,18.00
2023-02-08T15:59:20.926Z,17.90
2023-02-08T16:01:49.325Z,17.30
2023-02-08T16:04:17.413Z,16.90
2023-02-08T16:06:59.178Z,16.60
2023-02-08T16:09:28.998Z,16.10
2023-02-08T16:12:02.400Z,15.50
2023-02-08T16:14:32.797Z,15.00
2023-02-08T16:17:39.686Z,14.50
2023-02-08T16:20:33.824Z,14.10
2023-02-08T16:23:25.727Z,13.40
2023-02-08T16:25:55.523Z,13.10
2023-02-08T16:28:32.168Z,12.70
2023-02-08T16:31:04.210Z,12.50
2023-02-08T16:33:37.396Z,12.40
2023-02-08T16:36:07.394Z,12.00
2023-02-08T16:38:34.893Z,11.80
2023-02-08T16:41:15.205Z,11.70
2023-02-08T16:43:47.780Z,11.60
2023-02-08T16:46:21.454Z,11.30
2023-02-08T16:48:53.506Z,11.00
2023-02-08T16:51:28.421Z,10.70
2023-02-08T16:54:01.109Z,10.40
2023-02-08T16:56:28.990Z,10.30
2023-02-08T16:58:58.463Z,10.20
2023-02-08T17:01:26.890Z,9.90
2023-02-08T17:03:54.736Z,9.80
2023-02-08T17:06:26.110Z,9.60
2023-02-08T17:08:53.624Z,9.30
2023-02-08T17:11:20.932Z,9.30
2023-02-08T17:13:52.134Z,9.10
2023-02-08T17:16:22.983Z,9.00
2023-02-08T17:18:51.048Z,8.80
2023-02-08T17:21:19.184Z,8.60
2023-02-08T17:23:47.237Z,8.40
2023-02-08T17:26:29.212Z,8.30
2023-02-08T17:28:59.664Z,8.10
2023-02-08T17:31:31.568Z,7.90
2023-02-08T17:34:04.307Z,7.80
2023-02-08T17:36:34.210Z,7.80
2023-02-08T17:39:02.322Z,7.70
2023-02-08T17:41:29.578Z,7.50
2023-02-08T17:43:57.905Z,7.50
2023-02-08T17:46:27.449Z,7.20
2023-02-08T17:48:59.663Z,7.00
2023-02-08T17:51:27.492Z,6.90
2023-02-08T17:53:54.758Z,7.00
2023-02-08T17:56:28.619Z,7.00
2023-02-08T17:59:00.893Z,6.80
2023-02-08T18:01:28.197Z,6.80
2023-02-08T18:03:58.304Z,6.70
2023-02-08T18:06:30.016Z,6.60
2023-02-08T18:08:59.705Z,6.40
2023-02-08T18:11:31.295Z,6.30
2023-02-08T18:13:59.507Z,6.30
2023-02-08T18:16:30.938Z,6.30
2023-02-08T18:18:59.418Z,6.30
2023-02-08T18:21:26.747Z,6.20
2023-02-08T18:23:55.814Z,6.10
2023-02-08T18:26:24.860Z,6.00
2023-02-08T18:28:52.890Z,5.90
2023-02-08T18:31:21.229Z,5.90
2023-02-08T18:33:55.150Z,5.80
2023-02-08T18:36:23.702Z,5.70
2023-02-08T18:38:53.706Z,5.70
2023-02-08T18:41:26.169Z,5.60
2023-02-08T18:43:57.190Z,5.60
2023-02-08T18:46:29.370Z,5.50
2023-02-08T18:48:56.887Z,5.40
2023-02-08T18:51:25.628Z,5.40
2023-02-08T18:53:55.089Z,5.20
2023-02-08T18:56:26.565Z,5.20
2023-02-08T18:58:56.183Z,5.20
2023-02-08T19:01:24.692Z,5.20
2023-02-08T19:03:54.439Z,5.20
2023-02-08T19:06:25.090Z,5.20
2023-02-08T19:08:54.922Z,5.10
2023-02-08T19:11:27.622Z,5.10
2023-02-08T19:14:03.982Z,4.90
2023-02-08T19:16:33.266Z,4.80
2023-02-08T19:19:01.218Z,4.80
2023-02-08T19:21:33.029Z,4.70
2023-02-08T19:24:02.946Z,4.60
2023-02-08T19:26:37.015Z,4.60
2023-02-08T19:29:06.677Z,4.50
2023-02-08T19:31:34.721Z,4.50
2023-02-08T19:34:03.280Z,4.40
2023-02-08T19:36:33.744Z,4.30
2023-02-08T19:39:02.017Z,4.30
2023-02-08T19:41:33.458Z,4.20
2023-02-08T19:44:05.518Z,4.20
2023-02-08T19:46:38.718Z,4.00
2023-02-08T19:49:07.217Z,4.00
2023-02-08T19:51:36.954Z,4.10
2023-02-08T19:54:07.161Z,4.10
2023-02-08T19:56:34.632Z,4.00
2023-02-08T19:59:04.391Z,4.00
2023-02-08T20:01:33.481Z,3.90
2023-02-08T20:04:03.431Z,3.80
2023-02-08T20:06:39.534Z,3.80
2023-02-08T20:09:09.336Z,3.80
2023-02-08T20:11:55.795Z,3.80
2023-02-08T20:14:28.835Z,3.80
2023-02-08T20:16:59.236Z,3.70
2023-02-08T20:19:31.633Z,3.70
2023-02-08T20:22:06.322Z,3.70
2023-02-08T20:24:33.608Z,3.60
2023-02-08T20:27:03.300Z,3.40
2023-02-08T20:29:35.356Z,3.50
2023-02-08T20:32:02.767Z,3.40
2023-02-08T20:34:30.059Z,3.40
2023-02-08T20:37:12.657Z,3.50
2023-02-08T20:39:39.984Z,3.50
2023-02-08T20:42:07.344Z,3.40
2023-02-08T20:44:36.893Z,3.30
2023-02-08T20:47:04.254Z,3.20
2023-02-08T20:49:32.380Z,3.20
2023-02-08T20:52:00.111Z,3.10
2023-02-08T20:54:29.858Z,3.10
2023-02-08T20:56:59.722Z,3.10
2023-02-08T20:59:30.572Z,3.10
2023-02-08T21:01:57.852Z,3.10
2023-02-08T21:04:26.317Z,3.00
2023-02-08T21:06:53.617Z,3.00
2023-02-08T21:09:23.276Z,2.90
2023-02-08T21:11:53.851Z,2.80
2023-02-08T21:14:25.935Z,2.70
2023-02-08T21:16:58.670Z,2.60
2023-02-08T21:19:29.015Z,2.60
2023-02-08T21:21:58.819Z,2.50
2023-02-08T21:24:28.842Z,2.50
2023-02-08T21:26:57.045Z,2.30
2023-02-08T21:29:25.152Z,2.40
2023-02-08T21:31:54.315Z,2.20
2023-02-08T21:34:22.030Z,2.10
2023-02-08T21:36:54.169Z,2.00
2023-02-08T21:39:23.396Z,2.10
2023-02-08T21:41:52.556Z,2.10
2023-02-08T21:44:22.756Z,2.20
2023-02-08T21:46:50.100Z,2.10
2023-02-08T21:49:36.129Z,2.10
2023-02-08T21:52:22.065Z,2.10
2023-02-08T21:54:53.515Z,2.00
2023-02-08T21:57:23.733Z,1.90
2023-02-08T21:59:58.867Z,1.90
2023-02-08T22:02:28.906Z,2.00
2023-02-08T22:05:20.532Z,2.00
2023-02-08T22:07:57.328Z,2.10
2023-02-08T22:10:27.672Z,2.10
2023-02-08T22:12:55.851Z,2.00
2023-02-08T22:15:25.951Z,2.00
2023-02-08T22:18:01.979Z,2.00
2023-02-08T22:20:29.941Z,1.90
2023-02-08T22:23:00.014Z,1.90
2023-02-08T22:25:27.429Z,1.80
2023-02-08T22:27:56.969Z,1.70
2023-02-08T22:30:25.665Z,1.70
2023-02-08T22:32:55.270Z,1.70
2023-02-08T22:35:22.570Z,1.70
2023-02-08T22:37:49.887Z,1.60
2023-02-08T22:40:19.880Z,1.50
2023-02-08T22:42:50.008Z,1.40
2023-02-08T22:45:17.359Z,1.40
2023-02-08T22:47:46.719Z,1.40
2023-02-08T22:50:14.146Z,1.40
2023-02-08T22:52:43.914Z,1.30
2023-02-08T22:55:12.330Z,1.30
2023-02-08T22:57:43.446Z,1.20
2023-02-08T23:00:13.768Z,1.20
2023-02-08T23:02:41.223Z,1.20
2023-02-08T23:05:08.639Z,1.20
2023-02-08T23:07:38.336Z,1.20
2023-02-08T23:10:05.810Z,1.10
2023-02-08T23:12:35.439Z,1.10
2023-02-08T23:15:05.039Z,1.20
2023-02-08T23:17:32.273Z,1.20
2023-02-08T23:19:59.548Z,1.20
2023-02-08T23:22:31.707Z,1.20
2023-02-08T23:25:01.430Z,1.20
2023-02-08T23:27:28.678Z,1.20
2023-02-08T23:29:58.427Z,1.20
2023-02-08T23:32:27.955Z,1.10
2023-02-08T23:34:55.196Z,1.10
2023-02-08T23:37:22.497Z,1.20
2023-02-08T23:39:49.705Z,1.20
2023-02-08T23:42:25.831Z,1.30
2023-02-08T23:44:57.896Z,1.20
2023-02-08T23:47:28.933Z,1.20
2023-02-08T23:49:59.246Z,1.20
2023-02-08T23:52:26.600Z,1.20
2023-02-08T23:54:53.892Z,1.20
2023-02-08T23:57:23.392Z,1.20
2023-02-08T23:59:53.109Z,1.10
